createdAt,value
2022-11-21T00:00:15.000Z,99.99
2022-11-21T00:01:15.000Z,99.99
2022-11-21T00:02:15.000Z,99.99
2022-11-21T00:03:15.000Z,99.99
2022-11-21T00:04:15.000Z,99.99
2022-11-21T00:05:15.000Z,99.99
2022-11-21T00:06:15.000Z,99.99
2022-11-21T00:07:15.000Z,99.99
2022-11-21T00:08:15.000Z,99.99
2022-11-21T00:09:15.000Z,99.99
2022-11-21T00:10:15.000Z,99.99
2022-11-21T00:11:15.000Z,99.99
2022-11-21T00:12:15.000Z,99.99
2022-11-21T00:13:15.000Z,99.99
2022-11-21T00:14:15.000Z,99.99
2022-11-21T00:15:15.000Z,99.99
2022-11-21T00:16:15.000Z,99.99
2022-11-21T00:17:15.000Z,99.99
2022-11-21T00:18:15.000Z,99.99
2022-11-21T00:19:14.000Z,99.99
2022-11-21T00:20:14.000Z,99.99
2022-11-21T00:21:14.000Z,99.99
2022-11-21T00:22:14.000Z,99.99
2022-11-21T00:23:14.000Z,99.99
2022-11-21T00:24:14.000Z,99.99
2022-11-21T00:25:14.000Z,99.99
2022-11-21T00:26:14.000Z,99.99
2022-11-21T00:27:14.000Z,99.99
2022-11-21T00:28:14.000Z,99.99
2022-11-21T00:29:14.000Z,99.99
2022-11-21T00:30:14.000Z,99.99
2022-11-21T00:31:14.000Z,99.99
2022-11-21T00:32:14.000Z,99.99
2022-11-21T00:33:14.000Z,99.99
2022-11-21T00:34:14.000Z,99.99
2022-11-21T00:35:14.000Z,99.99
2022-11-21T00:36:14.000Z,99.99
2022-11-21T00:37:14.000Z,99.99
2022-11-21T00:38:14.000Z,99.99
2022-11-21T00:39:14.000Z,99.99
2022-11-21T00:40:14.000Z,99.99
2022-11-21T00:41:14.000Z,99.99
2022-11-21T00:42:14.000Z,99.99
2022-11-21T00:43:14.000Z,99.99
2022-11-21T00:44:14.000Z,99.99
2022-11-21T00:45:14.000Z,99.99
2022-11-21T00:46:14.000Z,99.99
2022-11-21T00:47:14.000Z,99.99
2022-11-21T00:48:14.000Z,99.99
2022-11-21T00:49:14.000Z,99.99
2022-11-21T00:50:14.000Z,99.99
2022-11-21T00:51:14.000Z,99.99
2022-11-21T00:52:14.000Z,99.99
2022-11-21T00:53:14.000Z,99.99
2022-11-21T00:54:14.000Z,99.99
2022-11-21T00:55:14.000Z,99.99
2022-11-21T00:56:14.000Z,99.99
2022-11-21T00:57:14.000Z,99.99
2022-11-21T00:58:14.000Z,99.99
2022-11-21T00:59:14.000Z,99.99
2022-11-21T01:00:14.000Z,99.99
2022-11-21T01:01:14.000Z,99.99
2022-11-21T01:02:14.000Z,99.99
2022-11-21T01:03:14.000Z,99.99
2022-11-21T01:04:14.000Z,99.99
2022-11-21T01:05:14.000Z,99.99
2022-11-21T01:06:14.000Z,99.99
2022-11-21T01:07:14.000Z,99.99
2022-11-21T01:08:14.000Z,99.99
2022-11-21T01:09:14.000Z,99.99
2022-11-21T01:10:14.000Z,99.99
2022-11-21T01:11:14.000Z,99.99
2022-11-21T01:12:14.000Z,99.99
2022-11-21T01:13:14.000Z,99.99
2022-11-21T01:14:14.000Z,99.99
2022-11-21T01:15:14.000Z,99.99
2022-11-21T01:16:14.000Z,99.99
2022-11-21T01:17:14.000Z,99.99
2022-11-21T01:18:14.000Z,99.99
2022-11-21T01:19:14.000Z,99.99
2022-11-21T01:20:14.000Z,99.99
2022-11-21T01:21:14.000Z,99.99
2022-11-21T01:22:14.000Z,99.99
2022-11-21T01:23:14.000Z,99.99
2022-11-21T01:24:14.000Z,99.99
2022-11-21T01:25:14.000Z,99.99
2022-11-21T01:26:14.000Z,99.99
2022-11-21T01:27:14.000Z,99.99
2022-11-21T01:28:14.000Z,99.99
2022-11-21T01:29:14.000Z,99.99
2022-11-21T01:30:14.000Z,99.99
2022-11-21T01:31:14.000Z,99.99
2022-11-21T01:32:14.000Z,99.99
2022-11-21T01:33:14.000Z,99.99
2022-11-21T01:34:14.000Z,99.99
2022-11-21T01:35:14.000Z,99.99
2022-11-21T01:36:14.000Z,99.99
2022-11-21T01:37:14.000Z,99.99
2022-11-21T01:38:14.000Z,99.99
2022-11-21T01:39:14.000Z,99.99
2022-11-21T01:40:14.000Z,99.99
2022-11-21T01:41:14.000Z,99.99
2022-11-21T01:42:14.000Z,99.99
2022-11-21T01:43:14.000Z,99.99
2022-11-21T01:44:14.000Z,99.99
2022-11-21T01:45:14.000Z,99.99
2022-11-21T01:46:14.000Z,99.99
2022-11-21T01:47:14.000Z,99.99
2022-11-21T01:48:14.000Z,99.99
2022-11-21T01:49:14.000Z,99.99
2022-11-21T01:50:14.000Z,99.99
2022-11-21T01:51:14.000Z,99.99
2022-11-21T01:52:14.000Z,99.99
2022-11-21T01:53:14.000Z,99.99
2022-11-21T01:54:14.000Z,99.99
2022-11-21T01:55:14.000Z,99.99
2022-11-21T01:56:13.000Z,99.99
2022-11-21T01:57:13.000Z,99.99
2022-11-21T01:58:13.000Z,99.99
2022-11-21T01:59:13.000Z,99.99
2022-11-21T02:00:13.000Z,99.99
2022-11-21T02:01:13.000Z,99.99
2022-11-21T02:02:13.000Z,99.99
2022-11-21T02:03:13.000Z,99.99
2022-11-21T02:04:13.000Z,99.99
2022-11-21T02:05:13.000Z,99.99
2022-11-21T02:06:13.000Z,99.99
2022-11-21T02:07:13.000Z,99.99
2022-11-21T02:08:13.000Z,99.99
2022-11-21T02:09:13.000Z,99.99
2022-11-21T02:10:13.000Z,99.99
2022-11-21T02:11:13.000Z,99.99
2022-11-21T02:12:13.000Z,99.99
2022-11-21T02:13:13.000Z,99.99
2022-11-21T02:14:13.000Z,99.99
2022-11-21T02:15:13.000Z,99.99
2022-11-21T02:16:13.000Z,99.99
2022-11-21T02:17:13.000Z,99.99
2022-11-21T02:18:13.000Z,99.99
2022-11-21T02:19:13.000Z,99.99
2022-11-21T02:20:13.000Z,99.99
2022-11-21T02:21:13.000Z,99.99
2022-11-21T02:22:13.000Z,99.99
2022-11-21T02:23:13.000Z,99.99
2022-11-21T02:24:13.000Z,99.99
2022-11-21T02:25:13.000Z,99.99
2022-11-21T02:26:13.000Z,99.99
2022-11-21T02:27:13.000Z,99.99
2022-11-21T02:28:13.000Z,99.99
2022-11-21T02:29:13.000Z,99.99
2022-11-21T02:30:13.000Z,99.99
2022-11-21T02:31:13.000Z,99.99
2022-11-21T02:32:13.000Z,99.99
2022-11-21T02:33:13.000Z,99.99
2022-11-21T02:34:13.000Z,99.99
2022-11-21T02:35:13.000Z,99.99
2022-11-21T02:36:13.000Z,99.99
2022-11-21T02:37:13.000Z,99.99
2022-11-21T02:38:13.000Z,99.99
2022-11-21T02:39:13.000Z,99.99
2022-11-21T02:40:13.000Z,99.99
2022-11-21T02:41:13.000Z,99.99
2022-11-21T02:42:13.000Z,99.99
2022-11-21T02:43:13.000Z,99.99
2022-11-21T02:44:13.000Z,99.99
2022-11-21T02:45:13.000Z,99.99
2022-11-21T02:46:13.000Z,99.99
2022-11-21T02:47:13.000Z,99.99
2022-11-21T02:48:13.000Z,99.99
2022-11-21T02:49:13.000Z,99.99
2022-11-21T02:50:13.000Z,99.99
2022-11-21T02:51:13.000Z,99.99
2022-11-21T02:52:13.000Z,99.99
2022-11-21T02:53:13.000Z,99.99
2022-11-21T02:54:13.000Z,99.99
2022-11-21T02:55:13.000Z,99.99
2022-11-21T02:56:13.000Z,99.99
2022-11-21T02:57:13.000Z,99.99
2022-11-21T02:58:13.000Z,99.99
2022-11-21T02:59:13.000Z,99.99
2022-11-21T03:00:13.000Z,99.99
2022-11-21T03:01:13.000Z,99.99
2022-11-21T03:02:13.000Z,99.99
2022-11-21T03:03:13.000Z,99.99
2022-11-21T03:04:13.000Z,99.99
2022-11-21T03:05:13.000Z,99.99
2022-11-21T03:06:13.000Z,99.99
2022-11-21T03:07:13.000Z,99.99
2022-11-21T03:08:13.000Z,99.99
2022-11-21T03:09:13.000Z,99.99
2022-11-21T03:10:13.000Z,99.99
2022-11-21T03:11:13.000Z,99.99
2022-11-21T03:12:13.000Z,99.99
2022-11-21T03:13:13.000Z,99.99
2022-11-21T03:14:13.000Z,99.99
2022-11-21T03:15:13.000Z,99.99
2022-11-21T03:16:13.000Z,99.99
2022-11-21T03:17:13.000Z,99.99
2022-11-21T03:18:13.000Z,99.99
2022-11-21T03:19:13.000Z,99.99
2022-11-21T03:20:13.000Z,99.99
2022-11-21T03:21:13.000Z,99.99
2022-11-21T03:22:13.000Z,99.99
2022-11-21T03:23:13.000Z,99.99
2022-11-21T03:24:13.000Z,99.99
2022-11-21T03:25:13.000Z,99.99
2022-11-21T03:26:13.000Z,99.99
2022-11-21T03:27:13.000Z,99.99
2022-11-21T03:28:13.000Z,99.99
2022-11-21T03:29:13.000Z,99.99
2022-11-21T03:30:13.000Z,99.99
2022-11-21T03:31:13.000Z,99.99
2022-11-21T03:32:13.000Z,99.99
2022-11-21T03:33:12.000Z,99.99
2022-11-21T03:34:12.000Z,99.99
2022-11-21T03:35:12.000Z,99.99
2022-11-21T03:36:12.000Z,99.99
2022-11-21T03:37:12.000Z,99.99
2022-11-21T03:38:12.000Z,99.99
2022-11-21T03:39:12.000Z,99.99
2022-11-21T03:40:12.000Z,99.99
2022-11-21T03:41:12.000Z,99.99
2022-11-21T03:42:12.000Z,99.99
2022-11-21T03:43:12.000Z,99.99
2022-11-21T03:44:12.000Z,99.99
2022-11-21T03:45:12.000Z,99.99
2022-11-21T03:46:12.000Z,99.99
2022-11-21T03:47:12.000Z,99.99
2022-11-21T03:48:12.000Z,99.99
2022-11-21T03:49:12.000Z,99.99
2022-11-21T03:50:12.000Z,99.99
2022-11-21T03:51:12.000Z,99.99
2022-11-21T03:52:12.000Z,99.99
2022-11-21T03:53:12.000Z,99.99
2022-11-21T03:54:12.000Z,99.99
2022-11-21T03:55:12.000Z,99.99
2022-11-21T03:56:12.000Z,99.99
2022-11-21T03:57:12.000Z,99.99
2022-11-21T03:58:12.000Z,99.99
2022-11-21T03:59:12.000Z,99.99
2022-11-21T04:00:12.000Z,99.99
2022-11-21T04:01:12.000Z,99.99
2022-11-21T04:02:12.000Z,99.99
2022-11-21T04:03:12.000Z,99.99
2022-11-21T04:04:12.000Z,99.99
2022-11-21T04:05:12.000Z,99.99
2022-11-21T04:06:12.000Z,99.99
2022-11-21T04:07:12.000Z,99.99
2022-11-21T04:08:12.000Z,99.99
2022-11-21T04:09:12.000Z,99.99
2022-11-21T04:10:12.000Z,99.99
2022-11-21T04:11:12.000Z,99.99
2022-11-21T04:12:12.000Z,99.99
2022-11-21T04:13:12.000Z,99.99
2022-11-21T04:14:12.000Z,99.99
2022-11-21T04:15:12.000Z,99.99
2022-11-21T04:16:12.000Z,99.99
2022-11-21T04:17:12.000Z,99.99
2022-11-21T04:18:12.000Z,99.99
2022-11-21T04:19:12.000Z,99.99
2022-11-21T04:20:12.000Z,99.99
2022-11-21T04:21:12.000Z,99.99
2022-11-21T04:22:12.000Z,99.99
2022-11-21T04:23:12.000Z,99.99
2022-11-21T04:24:12.000Z,99.99
2022-11-21T04:25:12.000Z,99.99
2022-11-21T04:26:12.000Z,99.99
2022-11-21T04:27:12.000Z,99.99
2022-11-21T04:28:12.000Z,99.99
2022-11-21T04:29:12.000Z,99.99
2022-11-21T04:30:12.000Z,99.99
2022-11-21T04:31:12.000Z,99.99
2022-11-21T04:32:12.000Z,99.99
2022-11-21T04:33:12.000Z,99.99
2022-11-21T04:34:12.000Z,99.99
2022-11-21T04:35:12.000Z,99.99
2022-11-21T04:36:12.000Z,99.99
2022-11-21T04:37:12.000Z,99.99
2022-11-21T04:38:12.000Z,99.99
2022-11-21T04:39:12.000Z,99.99
2022-11-21T04:40:12.000Z,99.99
2022-11-21T04:41:12.000Z,99.99
2022-11-21T04:42:12.000Z,99.99
2022-11-21T04:43:12.000Z,99.99
2022-11-21T04:44:12.000Z,99.99
2022-11-21T04:45:12.000Z,99.99
2022-11-21T04:46:12.000Z,99.99
2022-11-21T04:47:12.000Z,99.99
2022-11-21T04:48:12.000Z,99.99
2022-11-21T04:49:12.000Z,99.99
2022-11-21T04:50:12.000Z,99.99
2022-11-21T04:51:12.000Z,99.99
2022-11-21T04:52:12.000Z,99.99
2022-11-21T04:53:12.000Z,99.99
2022-11-21T04:54:12.000Z,99.99
2022-11-21T04:55:12.000Z,99.99
2022-11-21T04:56:12.000Z,99.99
2022-11-21T04:57:12.000Z,99.99
2022-11-21T04:58:12.000Z,99.99
2022-11-21T04:59:12.000Z,99.99
2022-11-21T05:00:12.000Z,99.99
2022-11-21T05:01:12.000Z,99.99
2022-11-21T05:02:12.000Z,99.99
2022-11-21T05:03:12.000Z,99.99
2022-11-21T05:04:12.000Z,99.99
2022-11-21T05:05:12.000Z,99.99
2022-11-21T05:06:12.000Z,99.99
2022-11-21T05:07:12.000Z,99.99
2022-11-21T05:08:12.000Z,99.99
2022-11-21T05:09:12.000Z,99.99
2022-11-21T05:10:12.000Z,99.99
2022-11-21T05:11:11.000Z,99.99
2022-11-21T05:12:11.000Z,99.99
2022-11-21T05:13:11.000Z,99.99
2022-11-21T05:14:11.000Z,99.99
2022-11-21T05:15:11.000Z,99.99
2022-11-21T05:16:11.000Z,99.99
2022-11-21T05:17:11.000Z,99.99
2022-11-21T05:18:11.000Z,99.99
2022-11-21T05:19:11.000Z,99.99
2022-11-21T05:20:11.000Z,99.99
2022-11-21T05:21:11.000Z,99.99
2022-11-21T05:22:11.000Z,99.99
2022-11-21T05:23:11.000Z,99.99
2022-11-21T05:24:11.000Z,99.99
2022-11-21T05:25:11.000Z,99.99
2022-11-21T05:26:11.000Z,99.99
2022-11-21T05:27:11.000Z,99.99
2022-11-21T05:28:11.000Z,99.99
2022-11-21T05:29:11.000Z,99.99
2022-11-21T05:30:11.000Z,99.99
2022-11-21T05:31:11.000Z,99.99
2022-11-21T05:32:11.000Z,99.99
2022-11-21T05:33:11.000Z,99.99
2022-11-21T05:34:11.000Z,99.99
2022-11-21T05:35:11.000Z,99.99
2022-11-21T05:36:11.000Z,99.99
2022-11-21T05:37:11.000Z,99.99
2022-11-21T05:38:11.000Z,99.99
2022-11-21T05:39:11.000Z,99.99
2022-11-21T05:40:11.000Z,99.99
2022-11-21T05:41:11.000Z,99.99
2022-11-21T05:42:11.000Z,99.99
2022-11-21T05:43:11.000Z,99.99
2022-11-21T05:44:11.000Z,99.99
2022-11-21T05:45:11.000Z,99.99
2022-11-21T05:46:11.000Z,99.99
2022-11-21T05:47:11.000Z,99.99
2022-11-21T05:48:11.000Z,99.99
2022-11-21T05:49:11.000Z,99.99
2022-11-21T05:50:11.000Z,99.99
2022-11-21T05:51:11.000Z,99.99
2022-11-21T05:52:11.000Z,99.99
2022-11-21T05:53:11.000Z,99.99
2022-11-21T05:54:11.000Z,99.99
2022-11-21T05:55:11.000Z,99.99
2022-11-21T05:56:11.000Z,99.99
2022-11-21T05:57:11.000Z,99.99
2022-11-21T05:58:11.000Z,99.99
2022-11-21T05:59:11.000Z,99.99
2022-11-21T06:00:11.000Z,99.99
2022-11-21T06:01:11.000Z,99.99
2022-11-21T06:02:11.000Z,99.99
2022-11-21T06:03:11.000Z,99.99
2022-11-21T06:04:11.000Z,99.99
2022-11-21T06:05:11.000Z,99.99
2022-11-21T06:06:11.000Z,99.99
2022-11-21T06:07:11.000Z,99.99
2022-11-21T06:08:11.000Z,99.99
2022-11-21T06:09:11.000Z,99.99
2022-11-21T06:10:11.000Z,99.99
2022-11-21T06:11:11.000Z,99.99
2022-11-21T06:12:11.000Z,99.99
2022-11-21T06:13:11.000Z,99.99
2022-11-21T06:14:11.000Z,99.99
2022-11-21T06:15:11.000Z,99.99
2022-11-21T06:16:11.000Z,99.99
2022-11-21T06:17:11.000Z,99.99
2022-11-21T06:24:29.000Z,99.99
2022-11-21T06:24:29.000Z,99.99
2022-11-21T06:25:29.000Z,99.99
2022-11-21T06:26:29.000Z,99.99
2022-11-21T06:27:29.000Z,99.99
2022-11-21T06:28:29.000Z,99.99
2022-11-21T06:29:29.000Z,99.99
2022-11-21T06:30:29.000Z,99.99
2022-11-21T06:31:29.000Z,99.99
2022-11-21T06:32:29.000Z,99.99
2022-11-21T06:33:29.000Z,99.99
2022-11-21T06:34:29.000Z,99.99
2022-11-21T06:35:29.000Z,99.99
2022-11-21T06:36:29.000Z,99.99
2022-11-21T06:37:29.000Z,99.99
2022-11-21T06:38:28.000Z,99.99
2022-11-21T06:39:28.000Z,99.99
2022-11-21T06:40:28.000Z,99.99
2022-11-21T06:41:28.000Z,99.99
2022-11-21T06:42:28.000Z,99.99
2022-11-21T06:43:28.000Z,99.99
2022-11-21T06:44:28.000Z,99.99
2022-11-21T06:45:28.000Z,99.99
2022-11-21T06:46:28.000Z,99.99
2022-11-21T06:47:28.000Z,99.99
2022-11-21T06:48:28.000Z,99.99
2022-11-21T06:49:28.000Z,99.99
2022-11-21T06:50:28.000Z,99.99
2022-11-21T06:51:28.000Z,99.99
2022-11-21T06:52:28.000Z,99.99
2022-11-21T06:53:28.000Z,99.99
2022-11-21T06:54:28.000Z,99.99
2022-11-21T06:55:28.000Z,99.99
2022-11-21T06:56:28.000Z,99.99
2022-11-21T06:57:28.000Z,99.99
2022-11-21T06:58:28.000Z,99.99
2022-11-21T06:59:28.000Z,99.99
2022-11-21T07:00:28.000Z,99.99
2022-11-21T07:01:28.000Z,99.99
2022-11-21T07:02:28.000Z,99.99
2022-11-21T07:03:28.000Z,99.99
2022-11-21T07:04:28.000Z,99.99
2022-11-21T07:05:28.000Z,99.99
2022-11-21T07:06:28.000Z,99.99
2022-11-21T07:07:28.000Z,99.99
2022-11-21T07:08:28.000Z,99.99
2022-11-21T07:09:28.000Z,99.99
2022-11-21T07:10:28.000Z,99.99
2022-11-21T07:11:28.000Z,99.99
2022-11-21T07:12:28.000Z,99.99
2022-11-21T07:13:28.000Z,99.99
2022-11-21T07:14:28.000Z,99.99
2022-11-21T07:15:28.000Z,99.99
2022-11-21T07:16:28.000Z,99.99
2022-11-21T07:17:28.000Z,99.99
2022-11-21T07:18:28.000Z,99.99
2022-11-21T07:19:28.000Z,99.99
2022-11-21T07:20:28.000Z,99.99
2022-11-21T07:21:28.000Z,99.99
2022-11-21T07:22:28.000Z,99.99
2022-11-21T07:23:28.000Z,99.99
2022-11-21T07:24:28.000Z,99.99
2022-11-21T07:25:28.000Z,99.99
2022-11-21T07:26:28.000Z,99.99
2022-11-21T07:27:28.000Z,99.99
2022-11-21T07:28:28.000Z,99.99
2022-11-21T07:29:28.000Z,99.99
2022-11-21T07:30:28.000Z,99.99
2022-11-21T07:31:28.000Z,99.99
2022-11-21T07:32:28.000Z,99.99
2022-11-21T07:33:28.000Z,99.99
2022-11-21T07:34:28.000Z,99.99
2022-11-21T07:35:28.000Z,99.99
2022-11-21T07:36:28.000Z,99.99
2022-11-21T07:37:28.000Z,99.99
2022-11-21T07:38:28.000Z,99.99
2022-11-21T07:39:28.000Z,99.99
2022-11-21T07:40:28.000Z,99.99
2022-11-21T07:41:28.000Z,99.99
2022-11-21T07:42:28.000Z,99.99
2022-11-21T07:43:28.000Z,99.99
2022-11-21T07:44:28.000Z,99.99
2022-11-21T07:45:28.000Z,99.99
2022-11-21T07:46:28.000Z,99.99
2022-11-21T07:47:28.000Z,99.99
2022-11-21T07:48:28.000Z,99.99
2022-11-21T07:49:28.000Z,99.99
2022-11-21T07:50:28.000Z,99.99
2022-11-21T07:51:28.000Z,99.99
2022-11-21T07:52:28.000Z,99.99
2022-11-21T07:53:28.000Z,99.99
2022-11-21T07:54:28.000Z,99.99
2022-11-21T07:55:28.000Z,99.99
2022-11-21T07:56:28.000Z,99.99
2022-11-21T07:57:28.000Z,99.99
2022-11-21T07:58:28.000Z,99.99
2022-11-21T07:59:28.000Z,99.99
2022-11-21T08:00:28.000Z,99.99
2022-11-21T08:01:28.000Z,99.99
2022-11-21T08:02:28.000Z,99.99
2022-11-21T08:03:28.000Z,99.99
2022-11-21T08:04:28.000Z,99.99
2022-11-21T08:05:28.000Z,99.99
2022-11-21T08:06:28.000Z,99.99
2022-11-21T08:07:28.000Z,99.99
2022-11-21T08:08:28.000Z,99.99
2022-11-21T08:09:28.000Z,99.99
2022-11-21T08:10:28.000Z,99.99
2022-11-21T08:11:28.000Z,99.99
2022-11-21T08:12:28.000Z,99.99
2022-11-21T08:13:28.000Z,99.99
2022-11-21T08:14:28.000Z,99.99
2022-11-21T08:15:28.000Z,99.99
2022-11-21T08:16:28.000Z,99.99
2022-11-21T08:17:27.000Z,99.99
2022-11-21T08:18:27.000Z,99.99
2022-11-21T08:19:27.000Z,99.99
2022-11-21T08:20:27.000Z,99.99
2022-11-21T08:21:27.000Z,99.99
2022-11-21T08:22:27.000Z,99.99
2022-11-21T08:23:27.000Z,99.99
2022-11-21T08:24:27.000Z,99.99
2022-11-21T08:25:27.000Z,99.99
2022-11-21T08:26:27.000Z,99.99
2022-11-21T08:27:27.000Z,99.99
2022-11-21T08:28:27.000Z,99.99
2022-11-21T08:29:27.000Z,99.99
2022-11-21T08:30:27.000Z,99.99
2022-11-21T08:31:27.000Z,99.99
2022-11-21T08:32:27.000Z,99.99
2022-11-21T08:33:27.000Z,99.99
2022-11-21T08:34:27.000Z,99.99
2022-11-21T08:35:27.000Z,99.99
2022-11-21T08:36:27.000Z,99.99
2022-11-21T08:37:27.000Z,99.99
2022-11-21T08:38:27.000Z,99.99
2022-11-21T08:39:27.000Z,99.99
2022-11-21T08:40:27.000Z,99.99
2022-11-21T08:41:27.000Z,99.99
2022-11-21T08:42:27.000Z,99.99
2022-11-21T08:43:27.000Z,99.99
2022-11-21T08:44:27.000Z,99.99
2022-11-21T08:45:27.000Z,99.99
2022-11-21T08:46:27.000Z,99.99
2022-11-21T08:47:27.000Z,99.99
2022-11-21T08:48:27.000Z,99.99
2022-11-21T08:49:27.000Z,99.99
2022-11-21T08:50:27.000Z,99.99
2022-11-21T08:51:27.000Z,99.99
2022-11-21T08:52:27.000Z,99.99
2022-11-21T08:53:27.000Z,99.99
2022-11-21T08:54:27.000Z,99.99
2022-11-21T08:55:27.000Z,99.99
2022-11-21T08:56:27.000Z,99.99
2022-11-21T08:57:27.000Z,99.99
2022-11-21T08:58:27.000Z,99.99
2022-11-21T08:59:27.000Z,99.99
2022-11-21T09:00:27.000Z,99.99
2022-11-21T09:01:27.000Z,99.99
2022-11-21T09:02:27.000Z,99.99
2022-11-21T09:03:27.000Z,99.99
2022-11-21T09:04:27.000Z,99.99
2022-11-21T09:05:27.000Z,99.99
2022-11-21T09:06:27.000Z,99.99
2022-11-21T09:07:27.000Z,99.99
2022-11-21T09:08:27.000Z,99.99
2022-11-21T09:09:27.000Z,99.99
2022-11-21T09:10:27.000Z,99.99
2022-11-21T09:11:27.000Z,99.99
2022-11-21T09:12:27.000Z,99.99
2022-11-21T09:13:27.000Z,99.99
2022-11-21T09:14:27.000Z,99.99
2022-11-21T09:15:27.000Z,99.99
2022-11-21T09:16:27.000Z,99.99
2022-11-21T09:17:27.000Z,99.99
2022-11-21T09:18:27.000Z,99.99
2022-11-21T09:19:27.000Z,99.99
2022-11-21T09:20:27.000Z,99.99
2022-11-21T09:21:27.000Z,99.99
2022-11-21T09:22:27.000Z,99.99
2022-11-21T09:23:27.000Z,99.99
2022-11-21T09:24:27.000Z,99.99
2022-11-21T09:25:27.000Z,99.99
2022-11-21T09:26:27.000Z,99.99
2022-11-21T09:27:27.000Z,99.99
2022-11-21T09:28:27.000Z,99.99
2022-11-21T09:29:27.000Z,99.99
2022-11-21T09:30:27.000Z,99.99
2022-11-21T09:31:27.000Z,99.99
2022-11-21T09:32:27.000Z,99.99
2022-11-21T09:33:27.000Z,99.99
2022-11-21T09:34:27.000Z,99.99
2022-11-21T09:35:27.000Z,99.99
2022-11-21T09:36:27.000Z,99.99
2022-11-21T09:37:27.000Z,99.99
2022-11-21T09:38:27.000Z,99.99
2022-11-21T09:39:27.000Z,99.99
2022-11-21T09:40:27.000Z,99.99
2022-11-21T09:41:27.000Z,99.99
2022-11-21T09:42:27.000Z,99.99
2022-11-21T09:43:27.000Z,99.99
2022-11-21T09:44:27.000Z,99.99
2022-11-21T09:45:27.000Z,99.99
2022-11-21T09:46:27.000Z,99.99
2022-11-21T09:47:27.000Z,99.99
2022-11-21T09:48:27.000Z,99.99
2022-11-21T09:49:27.000Z,99.99
2022-11-21T09:50:27.000Z,99.99
2022-11-21T09:51:27.000Z,99.99
2022-11-21T09:52:27.000Z,99.99
2022-11-21T09:53:27.000Z,99.99
2022-11-21T09:54:26.000Z,99.99
2022-11-21T09:55:26.000Z,99.99
2022-11-21T09:56:26.000Z,99.99
2022-11-21T09:57:26.000Z,99.99
2022-11-21T09:58:26.000Z,99.99
2022-11-21T09:59:26.000Z,99.99
2022-11-21T10:00:26.000Z,99.99
2022-11-21T10:01:26.000Z,99.99
2022-11-21T10:02:26.000Z,99.99
2022-11-21T10:03:26.000Z,99.99
2022-11-21T10:04:26.000Z,99.99
2022-11-21T10:05:26.000Z,99.85
2022-11-21T10:06:26.000Z,99.85
2022-11-21T10:07:26.000Z,99.75
2022-11-21T10:08:26.000Z,99.75
2022-11-21T10:09:26.000Z,99.54
2022-11-21T10:10:26.000Z,99.08
2022-11-21T10:11:26.000Z,98.25
2022-11-21T10:12:26.000Z,97.94
2022-11-21T10:13:26.000Z,97.20
2022-11-21T10:14:26.000Z,96.48
2022-11-21T10:15:26.000Z,96.16
2022-11-21T10:16:26.000Z,96.16
2022-11-21T10:17:26.000Z,96.37
2022-11-21T10:18:26.000Z,95.91
2022-11-21T10:19:26.000Z,95.08
2022-11-21T10:20:26.000Z,94.56
2022-11-21T10:21:26.000Z,94.45
2022-11-21T10:22:26.000Z,94.35
2022-11-21T10:23:26.000Z,94.35
2022-11-21T10:24:26.000Z,92.99
2022-11-21T10:25:26.000Z,93.41
2022-11-21T10:26:26.000Z,93.93
2022-11-21T10:27:26.000Z,94.04
2022-11-21T10:28:26.000Z,94.14
2022-11-21T10:29:26.000Z,94.24
2022-11-21T10:30:26.000Z,94.31
2022-11-21T10:31:26.000Z,93.99
2022-11-21T10:32:26.000Z,93.31
2022-11-21T10:33:26.000Z,93.20
2022-11-21T10:34:26.000Z,92.47
2022-11-21T10:35:26.000Z,92.58
2022-11-21T10:36:26.000Z,92.89
2022-11-21T10:37:26.000Z,93.20
2022-11-21T10:38:26.000Z,93.52
2022-11-21T10:39:26.000Z,92.99
2022-11-21T10:40:26.000Z,92.58
2022-11-21T10:41:26.000Z,92.83
2022-11-21T10:42:26.000Z,92.93
2022-11-21T10:43:26.000Z,92.83
2022-11-21T10:44:26.000Z,93.04
2022-11-21T10:45:26.000Z,93.14
2022-11-21T10:46:26.000Z,93.35
2022-11-21T10:47:26.000Z,93.66
2022-11-21T10:48:26.000Z,93.77
2022-11-21T10:49:26.000Z,93.77
2022-11-21T10:50:26.000Z,93.77
2022-11-21T10:51:26.000Z,93.87
2022-11-21T10:52:26.000Z,93.98
2022-11-21T10:53:26.000Z,94.18
2022-11-21T10:54:26.000Z,94.29
2022-11-21T10:55:26.000Z,93.98
2022-11-21T10:56:26.000Z,93.46
2022-11-21T10:57:26.000Z,93.35
2022-11-21T10:58:26.000Z,93.56
2022-11-21T10:59:26.000Z,93.56
2022-11-21T11:00:26.000Z,93.98
2022-11-21T11:01:26.000Z,93.98
2022-11-21T11:02:26.000Z,93.66
2022-11-21T11:03:26.000Z,93.35
2022-11-21T11:04:26.000Z,93.35
2022-11-21T11:05:26.000Z,93.35
2022-11-21T11:06:26.000Z,93.77
2022-11-21T11:07:26.000Z,93.98
2022-11-21T11:08:26.000Z,93.98
2022-11-21T11:08:26.000Z,93.98
2022-11-21T11:09:26.000Z,94.18
2022-11-21T11:09:26.000Z,94.18
2022-11-21T11:10:26.000Z,94.39
2022-11-21T11:10:26.000Z,94.39
2022-11-21T11:11:26.000Z,94.60
2022-11-21T11:11:26.000Z,94.60
2022-11-21T11:12:26.000Z,94.49
2022-11-21T11:12:26.000Z,94.49
2022-11-21T11:13:26.000Z,94.49
2022-11-21T11:14:26.000Z,94.29
2022-11-21T11:15:26.000Z,93.87
2022-11-21T11:16:26.000Z,94.18
2022-11-21T11:17:26.000Z,94.49
2022-11-21T11:18:26.000Z,94.60
2022-11-21T11:19:26.000Z,94.39
2022-11-21T11:20:26.000Z,94.49
2022-11-21T11:21:26.000Z,94.49
2022-11-21T11:22:26.000Z,94.45
2022-11-21T11:23:26.000Z,94.87
2022-11-21T11:24:26.000Z,94.98
2022-11-21T11:25:26.000Z,94.87
2022-11-21T11:26:26.000Z,94.87
2022-11-21T11:27:26.000Z,95.03
2022-11-21T11:28:26.000Z,94.62
2022-11-21T11:29:26.000Z,95.03
2022-11-21T11:30:25.000Z,93.89
2022-11-21T11:31:25.000Z,93.58
2022-11-21T11:32:25.000Z,93.54
2022-11-21T11:33:25.000Z,93.01
2022-11-21T11:34:25.000Z,92.70
2022-11-21T11:35:25.000Z,93.12
2022-11-21T11:36:25.000Z,93.60
2022-11-21T11:37:25.000Z,91.52
2022-11-21T11:38:25.000Z,91.52
2022-11-21T11:39:25.000Z,91.62
2022-11-21T11:40:25.000Z,90.89
2022-11-21T11:41:25.000Z,91.06
2022-11-21T11:42:25.000Z,90.75
2022-11-21T11:43:25.000Z,91.47
2022-11-21T11:43:25.000Z,91.47
2022-11-21T11:44:25.000Z,90.64
2022-11-21T11:44:25.000Z,90.64
2022-11-21T11:45:25.000Z,91.12
2022-11-21T11:45:25.000Z,91.12
2022-11-21T11:46:25.000Z,90.50
2022-11-21T11:46:25.000Z,90.50
2022-11-21T11:47:25.000Z,90.81
2022-11-21T11:47:25.000Z,90.81
2022-11-21T11:48:25.000Z,90.81
2022-11-21T11:49:25.000Z,90.02
2022-11-21T11:50:25.000Z,90.44
2022-11-21T11:51:25.000Z,91.02
2022-11-21T11:52:25.000Z,89.92
2022-11-21T11:53:25.000Z,89.18
2022-11-21T11:54:25.000Z,88.87
2022-11-21T11:55:25.000Z,88.98
2022-11-21T11:56:25.000Z,89.70
2022-11-21T11:57:25.000Z,89.39
2022-11-21T11:58:25.000Z,88.98
2022-11-21T11:59:25.000Z,89.92
2022-11-21T12:00:25.000Z,90.12
2022-11-21T12:01:25.000Z,90.23
2022-11-21T12:02:25.000Z,90.64
2022-11-21T12:03:25.000Z,90.75
2022-11-21T12:03:25.000Z,90.75
2022-11-21T12:04:25.000Z,91.06
2022-11-21T12:04:25.000Z,91.06
2022-11-21T12:05:25.000Z,90.23
2022-11-21T12:05:25.000Z,90.23
2022-11-21T12:06:25.000Z,90.54
2022-11-21T12:06:25.000Z,90.54
2022-11-21T12:07:25.000Z,90.95
2022-11-21T12:07:25.000Z,90.95
2022-11-21T12:08:25.000Z,91.58
2022-11-21T12:09:25.000Z,91.27
2022-11-21T12:10:25.000Z,90.29
2022-11-21T12:11:25.000Z,90.39
2022-11-21T12:12:25.000Z,90.08
2022-11-21T12:13:25.000Z,90.08
2022-11-21T12:14:25.000Z,90.70
2022-11-21T12:15:25.000Z,90.39
2022-11-21T12:16:25.000Z,90.29
2022-11-21T12:17:25.000Z,89.56
2022-11-21T12:18:25.000Z,89.25
2022-11-21T12:19:25.000Z,89.56
2022-11-21T12:20:25.000Z,89.77
2022-11-21T12:21:25.000Z,89.46
2022-11-21T12:22:25.000Z,89.87
2022-11-21T12:23:25.000Z,89.46
2022-11-21T12:24:25.000Z,89.39
2022-11-21T12:25:25.000Z,89.60
2022-11-21T12:26:25.000Z,89.50
2022-11-21T12:27:25.000Z,89.81
2022-11-21T12:28:25.000Z,90.02
2022-11-21T12:29:25.000Z,90.23
2022-11-21T12:30:25.000Z,90.44
2022-11-21T12:31:25.000Z,90.54
2022-11-21T12:32:25.000Z,90.47
2022-11-21T12:33:25.000Z,90.47
2022-11-21T12:34:25.000Z,90.69
2022-11-21T12:35:25.000Z,91.06
2022-11-21T12:36:25.000Z,91.06
2022-11-21T12:37:25.000Z,90.85
2022-11-21T12:38:25.000Z,90.54
2022-11-21T12:39:25.000Z,90.16
2022-11-21T12:40:25.000Z,89.64
2022-11-21T12:41:25.000Z,89.85
2022-11-21T12:42:25.000Z,89.85